Time;durP1;ratioP1;P1;durP2;ratioP2;P2;SDS_P1;SDS_P2;PMS_P1;PMS_P2;Temp;Humidity;BMP_temperature;BMP_pressure;BME280_temperature;BME280_humidity;BME280_pressure;Samples;Min_cycle;Max_cycle;Signal;HPM_P1;HPM_P2
2023/03/12 03:01:19;;;;;;;13.57;10.63;;;0.70;99.90;;;;;;5608054;23;20529;-78
2023/03/12 03:03:47;;;;;;;13.80;11.07;;;0.70;99.90;;;;;;4974500;28;20473;-78
2023/03/12 03:06:14;;;;;;;12.57;10.73;;;0.80;99.90;;;;;;4971182;28;20447;-78
2023/03/12 03:08:41;;;;;;;11.40;10.40;;;0.80;99.90;;;;;;4974914;28;20452;-78
2023/03/12 03:11:08;;;;;;;11.97;10.87;;;0.90;99.90;;;;;;4975104;28;20456;-78
2023/03/12 03:13:35;;;;;;;11.90;10.70;;;0.90;99.90;;;;;;4969417;28;20961;-77
2023/03/12 03:16:03;;;;;;;11.43;10.30;;;0.90;99.90;;;;;;4969659;28;20456;-79
2023/03/12 03:18:32;;;;;;;11.70;10.50;;;0.90;99.90;;;;;;4972512;28;20523;-78
2023/03/12 03:21:00;;;;;;;11.83;10.63;;;1.00;99.90;;;;;;4965789;28;20891;-78
2023/03/12 03:23:28;;;;;;;11.37;10.27;;;1.00;99.90;;;;;;4968927;28;20482;-77
2023/03/12 03:25:55;;;;;;;11.70;10.70;;;1.00;99.90;;;;;;4969340;28;20984;-78
2023/03/12 03:28:25;;;;;;;11.40;10.40;;;1.00;99.90;;;;;;4972001;28;20931;-77
2023/03/12 03:30:53;;;;;;;11.50;10.50;;;1.00;99.90;;;;;;4966736;28;20478;-77
2023/03/12 03:33:20;;;;;;;12.03;10.83;;;1.00;99.90;;;;;;4972459;28;20456;-77
2023/03/12 03:35:49;;;;;;;11.73;10.47;;;1.00;99.90;;;;;;4963491;28;20453;-84
2023/03/12 03:38:17;;;;;;;11.43;10.20;;;1.00;99.90;;;;;;4960227;28;20453;-78
2023/03/12 03:40:44;;;;;;;12.10;10.90;;;1.10;99.90;;;;;;4965448;28;20500;-78
2023/03/12 03:43:11;;;;;;;12.20;10.97;;;1.10;99.90;;;;;;4965559;28;20476;-81
2023/03/12 03:45:38;;;;;;;10.87;9.83;;;1.00;99.90;;;;;;4945809;28;20458;-87
2023/03/12 03:48:06;;;;;;;10.23;9.23;;;1.10;99.90;;;;;;4950281;28;20846;-80
2023/03/12 03:50:34;;;;;;;10.07;9.33;;;1.00;99.90;;;;;;4954232;28;20504;-80
2023/03/12 03:53:03;;;;;;;10.90;9.87;;;1.00;99.90;;;;;;4957762;28;20829;-80
2023/03/12 03:55:30;;;;;;;11.03;9.93;;;1.00;99.90;;;;;;4952264;28;20500;-81
2023/03/12 03:57:57;;;;;;;11.47;10.37;;;1.10;99.90;;;;;;4948976;28;20453;-80
2023/03/12 04:00:24;;;;;;;10.40;9.60;;;1.10;99.90;;;;;;4954034;28;20250;-80
2023/03/12 04:02:54;;;;;;;10.80;9.90;;;1.10;99.90;;;;;;4954038;28;20470;-81
2023/03/12 04:05:21;;;;;;;10.93;10.03;;;1.10;99.90;;;;;;4946437;28;20576;-81
2023/03/12 04:07:51;;;;;;;11.00;10.00;;;1.20;99.90;;;;;;4954038;28;20464;-79
2023/03/12 04:10:24;;;;;;;11.40;10.30;;;1.20;99.90;;;;;;4949794;28;20223;-80
2023/03/12 04:12:52;;;;;;;11.53;10.40;;;1.20;99.90;;;;;;4953884;28;20467;-81
2023/03/12 04:15:20;;;;;;;12.97;11.30;;;1.20;99.90;;;;;;4950598;28;20446;-80
2023/03/12 04:17:48;;;;;;;11.63;10.63;;;1.20;99.90;;;;;;4954192;28;20673;-82
2023/03/12 04:20:16;;;;;;;12.30;11.10;;;1.20;99.90;;;;;;4949177;28;20534;-80
2023/03/12 04:22:43;;;;;;;11.13;10.23;;;1.20;99.90;;;;;;4944118;28;20516;-80
2023/03/12 04:25:10;;;;;;;12.33;11.23;;;1.20;99.90;;;;;;4954398;28;20497;-83
2023/03/12 04:27:39;;;;;;;12.57;11.37;;;1.30;99.90;;;;;;4951605;28;20451;-82
2023/03/12 04:30:07;;;;;;;12.67;11.37;;;1.30;99.90;;;;;;4944280;28;20219;-82
2023/03/12 04:32:35;;;;;;;11.70;10.60;;;1.30;99.90;;;;;;4945532;28;20659;-81
2023/03/12 04:35:03;;;;;;;11.90;10.90;;;1.30;99.90;;;;;;4953341;28;20860;-78
2023/03/12 04:37:32;;;;;;;11.93;10.73;;;1.30;99.90;;;;;;4974277;28;20531;-78
2023/03/12 04:40:00;;;;;;;10.60;9.70;;;1.30;99.90;;;;;;4966242;28;20477;-78
2023/03/12 04:42:28;;;;;;;11.53;10.50;;;1.40;99.90;;;;;;4948055;28;20566;-79
2023/03/12 04:44:57;;;;;;;12.23;11.17;;;1.40;99.90;;;;;;4954487;28;20455;-78
2023/03/12 04:47:24;;;;;;;13.23;10.10;;;1.40;99.90;;;;;;4973856;28;20457;-78
2023/03/12 04:49:51;;;;;;;11.53;10.33;;;1.50;99.90;;;;;;4956940;28;20449;-78
2023/03/12 04:52:18;;;;;;;11.23;10.33;;;1.50;99.90;;;;;;4961374;28;20490;-79
2023/03/12 04:54:45;;;;;;;11.50;10.50;;;1.50;99.90;;;;;;4968668;28;20449;-78
2023/03/12 04:57:12;;;;;;;11.80;10.67;;;1.60;99.90;;;;;;4968725;28;20228;-78
2023/03/12 04:59:39;;;;;;;10.63;9.73;;;1.60;99.90;;;;;;4961076;28;20892;-79
2023/03/12 05:02:07;;;;;;;10.90;10.00;;;1.60;99.90;;;;;;4961160;28;20535;-80
2023/03/12 05:04:34;;;;;;;11.83;10.73;;;1.60;99.90;;;;;;4966561;28;20270;-78
2023/03/12 05:07:01;;;;;;;11.50;10.50;;;1.70;99.90;;;;;;4965967;28;20640;-77
2023/03/12 05:09:28;;;;;;;11.53;10.53;;;1.80;99.90;;;;;;4971817;28;20500;-78
2023/03/12 05:11:55;;;;;;;11.40;10.23;;;1.80;99.90;;;;;;4969682;28;20556;-77
2023/03/12 05:14:23;;;;;;;11.40;10.33;;;1.80;99.90;;;;;;4959106;28;20221;-78
2023/03/12 05:16:49;;;;;;;12.20;11.13;;;1.80;99.90;;;;;;4968363;28;20449;-78
2023/03/12 05:19:18;;;;;;;11.23;10.23;;;1.80;99.90;;;;;;4971455;28;20441;-78
2023/03/12 05:21:45;;;;;;;11.50;10.50;;;1.80;99.90;;;;;;4967805;28;20222;-77
2023/03/12 05:24:12;;;;;;;11.43;10.47;;;1.80;99.90;;;;;;4965699;28;20479;-78
2023/03/12 05:26:39;;;;;;;11.90;10.80;;;1.80;99.90;;;;;;4972705;28;20274;-78
2023/03/12 05:29:16;;;;;;;12.23;11.00;;;1.70;99.90;;;;;;4972664;28;20527;-78
2023/03/12 05:31:43;;;;;;;13.53;11.67;;;1.70;99.90;;;;;;4965706;28;20754;-78
2023/03/12 05:34:12;;;;;;;11.37;10.27;;;1.60;99.90;;;;;;4972501;28;20340;-77
2023/03/12 05:36:41;;;;;;;11.57;10.57;;;1.70;99.90;;;;;;4985615;28;20198;-78
2023/03/12 05:39:09;;;;;;;11.73;10.67;;;1.70;99.90;;;;;;4972297;28;20853;-88
2023/03/12 05:41:36;;;;;;;11.43;10.27;;;1.70;99.90;;;;;;4958164;28;20222;-85
2023/03/12 05:44:12;;;;;;;11.63;10.47;;;1.70;99.90;;;;;;4962212;28;20272;-82
2023/03/12 05:46:39;;;;;;;11.23;10.23;;;1.70;99.90;;;;;;4957643;28;20452;-83
2023/03/12 05:49:06;;;;;;;11.03;9.97;;;1.70;99.90;;;;;;4965536;28;21002;-82
2023/03/12 05:51:34;;;;;;;11.67;10.53;;;1.80;99.90;;;;;;4969239;28;20229;-84
2023/03/12 05:54:03;;;;;;;10.60;9.80;;;1.80;99.90;;;;;;4973064;28;20884;-80
2023/03/12 05:56:31;;;;;;;11.03;10.10;;;1.80;99.90;;;;;;4959200;28;20434;-77
2023/03/12 05:58:57;;;;;;;11.33;10.37;;;1.90;99.90;;;;;;4972363;28;20540;-78
2023/03/12 06:01:28;;;;;;;11.93;10.83;;;1.90;99.90;;;;;;4961127;28;20489;-79
2023/03/12 06:03:57;;;;;;;11.20;10.27;;;1.80;99.90;;;;;;4967964;28;20269;-78
2023/03/12 06:06:25;;;;;;;11.60;10.60;;;1.80;99.90;;;;;;4966705;28;20209;-78
2023/03/12 06:08:53;;;;;;;12.00;10.90;;;1.80;99.90;;;;;;4970399;28;20230;-78
2023/03/12 06:11:21;;;;;;;11.93;10.90;;;1.80;99.90;;;;;;4973027;28;20269;-78
2023/03/12 06:13:48;;;;;;;11.93;10.73;;;1.80;99.90;;;;;;4966986;28;20444;-78
2023/03/12 06:16:17;;;;;;;12.60;11.40;;;1.80;99.90;;;;;;4962833;28;20216;-78
2023/03/12 06:18:45;;;;;;;12.50;11.23;;;1.80;99.90;;;;;;4969594;28;20452;-78
2023/03/12 06:21:14;;;;;;;12.37;11.27;;;1.80;99.90;;;;;;4968751;28;20500;-77
2023/03/12 06:23:42;;;;;;;11.87;10.80;;;1.90;99.90;;;;;;4965783;28;20218;-78
2023/03/12 06:26:15;;;;;;;12.70;11.40;;;1.90;99.90;;;;;;4970860;28;20760;-78
2023/03/12 06:28:45;;;;;;;13.37;11.97;;;1.90;99.90;;;;;;4969713;28;20213;-77
2023/03/12 06:31:12;;;;;;;12.20;11.20;;;1.90;99.90;;;;;;4968395;28;20239;-77
2023/03/12 06:33:39;;;;;;;12.90;11.70;;;2.00;99.90;;;;;;4972927;28;20457;-79
2023/03/12 06:36:07;;;;;;;12.80;11.50;;;2.00;99.90;;;;;;4974087;28;20215;-78
2023/03/12 06:38:35;;;;;;;12.50;11.37;;;2.10;99.90;;;;;;4973318;28;20632;-78
2023/03/12 06:41:03;;;;;;;12.20;11.20;;;2.10;99.90;;;;;;4949329;28;20529;-79
2023/03/12 06:43:32;;;;;;;12.97;11.77;;;2.20;99.90;;;;;;4965373;28;20917;-78
2023/03/12 06:46:01;;;;;;;14.03;12.57;;;2.20;99.90;;;;;;4964768;28;20234;-79
2023/03/12 06:48:32;;;;;;;13.70;12.40;;;2.30;99.90;;;;;;4948908;28;20278;-77
2023/03/12 06:50:59;;;;;;;13.33;12.03;;;2.30;99.90;;;;;;4954139;28;20218;-84
2023/03/12 06:53:26;;;;;;;13.13;11.90;;;2.40;99.90;;;;;;4955153;28;20660;-83
2023/03/12 06:55:53;;;;;;;13.87;12.50;;;2.40;99.90;;;;;;4952422;28;20630;-83
2023/03/12 06:58:20;;;;;;;13.23;12.03;;;2.40;99.90;;;;;;4965579;28;20209;-84
2023/03/12 07:00:46;;;;;;;13.07;11.87;;;2.30;99.90;;;;;;4961296;28;20222;-85
2023/03/12 07:03:15;;;;;;;11.40;10.50;;;2.40;99.90;;;;;;4960961;28;20223;-78
2023/03/12 07:05:44;;;;;;;11.37;10.43;;;2.40;99.90;;;;;;4955310;28;20254;-78
2023/03/12 07:08:11;;;;;;;12.07;10.97;;;2.50;99.90;;;;;;4950786;28;20459;-77
2023/03/12 07:10:38;;;;;;;12.53;11.33;;;2.50;99.90;;;;;;4955222;28;20257;-78
2023/03/12 07:13:05;;;;;;;12.17;11.10;;;2.60;99.90;;;;;;4953493;28;20211;-78
2023/03/12 07:15:32;;;;;;;13.20;12.13;;;2.70;99.90;;;;;;4954230;28;20261;-79
2023/03/12 07:18:00;;;;;;;12.23;11.30;;;2.80;99.90;;;;;;4956078;28;20289;-85
2023/03/12 07:20:28;;;;;;;13.20;11.97;;;2.90;99.90;;;;;;4949699;28;20262;-84
2023/03/12 07:22:55;;;;;;;12.77;11.67;;;2.90;99.90;;;;;;4953802;28;20211;-85
2023/03/12 07:25:22;;;;;;;12.33;11.10;;;2.90;99.90;;;;;;4949896;28;20207;-85
2023/03/12 07:27:49;;;;;;;12.80;11.60;;;2.90;99.90;;;;;;4956371;28;20217;-84
2023/03/12 07:30:16;;;;;;;13.50;12.20;;;2.90;99.90;;;;;;4950526;28;20274;-85
2023/03/12 07:32:43;;;;;;;13.23;12.03;;;2.90;99.90;;;;;;4949416;28;20704;-85
2023/03/12 07:35:10;;;;;;;13.53;12.23;;;2.90;99.90;;;;;;4951274;28;20199;-85
2023/03/12 07:37:38;;;;;;;12.93;11.77;;;2.80;99.90;;;;;;4941268;28;20262;-85
2023/03/12 07:40:07;;;;;;;13.13;11.93;;;2.90;99.90;;;;;;4954360;28;20202;-85
2023/03/12 07:42:34;;;;;;;12.87;11.77;;;3.00;99.90;;;;;;4950709;28;20293;-85
2023/03/12 07:45:00;;;;;;;13.43;12.10;;;3.10;99.90;;;;;;4954873;28;20222;-86
2023/03/12 07:47:27;;;;;;;12.00;10.90;;;3.20;99.90;;;;;;4951523;28;20206;-84
2023/03/12 07:49:54;;;;;;;12.70;11.40;;;3.30;99.90;;;;;;4945327;28;20211;-83
2023/03/12 07:52:22;;;;;;;13.10;11.87;;;3.30;99.90;;;;;;4951261;28;20219;-81
2023/03/12 07:54:51;;;;;;;11.03;10.03;;;3.30;99.90;;;;;;4947551;28;20200;-84
2023/03/12 07:57:18;;;;;;;13.90;12.60;;;3.50;99.90;;;;;;4951523;28;20776;-82
2023/03/12 07:59:45;;;;;;;14.13;12.80;;;3.70;99.90;;;;;;4950362;28;20211;-77
2023/03/12 08:02:12;;;;;;;14.10;12.80;;;3.90;99.90;;;;;;4954174;28;20800;-77
2023/03/12 08:04:39;;;;;;;13.40;12.10;;;4.10;99.90;;;;;;4954925;28;20635;-77
2023/03/12 08:07:06;;;;;;;13.27;12.17;;;4.40;99.90;;;;;;4948308;28;20206;-77
2023/03/12 08:09:33;;;;;;;13.60;12.37;;;4.70;99.90;;;;;;4955426;28;20234;-78
2023/03/12 08:12:01;;;;;;;13.60;12.37;;;5.20;99.90;;;;;;4945045;28;20229;-78
2023/03/12 08:14:30;;;;;;;13.23;12.23;;;5.50;99.90;;;;;;4949024;28;20200;-78
2023/03/12 08:16:57;;;;;;;13.53;12.20;;;5.70;99.90;;;;;;4952941;28;20203;-80
2023/03/12 08:19:24;;;;;;;13.10;12.00;;;5.70;99.90;;;;;;4950801;28;20208;-76
2023/03/12 08:21:52;;;;;;;12.53;11.47;;;5.60;99.90;;;;;;4956042;28;20723;-78
2023/03/12 08:24:19;;;;;;;13.23;12.10;;;5.50;99.90;;;;;;4948484;28;20224;-78
2023/03/12 08:26:46;;;;;;;13.67;12.37;;;5.60;99.90;;;;;;4953997;28;20223;-79
2023/03/12 08:29:14;;;;;;;12.90;11.80;;;6.00;99.90;;;;;;4946808;28;20210;-83
2023/03/12 08:31:41;;;;;;;13.17;12.03;;;6.30;99.90;;;;;;4944713;28;20221;-78
2023/03/12 08:34:08;;;;;;;13.13;11.93;;;6.30;99.90;;;;;;4938641;28;20254;-78
2023/03/12 08:36:36;;;;;;;12.40;11.40;;;6.40;99.90;;;;;;4953945;28;20224;-79
2023/03/12 08:39:03;;;;;;;11.17;10.27;;;6.40;99.90;;;;;;4946908;28;20213;-80
2023/03/12 08:41:30;;;;;;;11.07;9.97;;;6.30;99.90;;;;;;4952887;28;20244;-79
2023/03/12 08:43:56;;;;;;;12.80;11.70;;;6.40;99.90;;;;;;4951518;28;20651;-78
2023/03/12 08:46:25;;;;;;;12.70;11.50;;;6.50;99.90;;;;;;4951659;28;20256;-78
2023/03/12 08:48:51;;;;;;;12.80;11.50;;;6.70;99.90;;;;;;4950259;28;20269;-77
2023/03/12 08:51:18;;;;;;;12.30;11.20;;;6.80;99.90;;;;;;4945381;28;20598;-81
2023/03/12 08:53:45;;;;;;;12.57;11.37;;;6.90;99.90;;;;;;4952706;28;20326;-84
2023/03/12 08:56:12;;;;;;;12.30;11.20;;;6.90;99.90;;;;;;4942854;28;20203;-79
2023/03/12 08:58:38;;;;;;;11.83;10.87;;;6.90;99.90;;;;;;4955211;28;20253;-79
2023/03/12 09:01:09;;;;;;;11.80;10.90;;;6.90;99.90;;;;;;4951118;28;20238;-80
2023/03/12 09:03:37;;;;;;;12.33;11.33;;;7.00;99.90;;;;;;4952500;28;20225;-80
2023/03/12 09:06:06;;;;;;;11.53;10.53;;;6.90;99.90;;;;;;4952472;28;20202;-80
2023/03/12 09:08:33;;;;;;;9.23;8.43;;;7.00;99.90;;;;;;4956037;28;20210;-79
2023/03/12 09:11:01;;;;;;;9.80;8.90;;;7.00;99.90;;;;;;4946265;28;20230;-79
2023/03/12 09:13:28;;;;;;;10.90;10.00;;;7.00;99.90;;;;;;4953912;28;20341;-78
2023/03/12 09:15:59;;;;;;;11.50;10.50;;;7.10;99.90;;;;;;4950001;28;20203;-79
2023/03/12 09:18:25;;;;;;;10.77;9.90;;;7.30;99.90;;;;;;4957554;28;20195;-78
2023/03/12 09:20:54;;;;;;;11.57;10.37;;;7.50;99.90;;;;;;4952178;28;20364;-79
2023/03/12 09:23:20;;;;;;;11.30;10.40;;;7.60;99.90;;;;;;4956818;28;20210;-79
2023/03/12 09:25:48;;;;;;;10.80;10.00;;;7.80;99.90;;;;;;4958625;28;20199;-79
2023/03/12 09:28:15;;;;;;;11.23;10.13;;;8.20;99.90;;;;;;4958920;28;20262;-78
2023/03/12 09:30:42;;;;;;;12.00;10.87;;;8.60;99.90;;;;;;4972086;28;20225;-80
2023/03/12 09:33:09;;;;;;;9.63;8.83;;;8.80;99.90;;;;;;4961342;28;20852;-79
2023/03/12 09:35:36;;;;;;;10.10;9.20;;;8.80;99.90;;;;;;4963242;28;20190;-78
2023/03/12 09:38:05;;;;;;;9.17;8.47;;;8.80;99.90;;;;;;4968194;28;20198;-79
2023/03/12 09:40:35;;;;;;;7.90;7.20;;;8.80;99.90;;;;;;4967803;28;20199;-79
2023/03/12 09:43:05;;;;;;;9.23;6.00;;;8.80;99.90;;;;;;4963745;28;20274;-78
2023/03/12 09:45:37;;;;;;;7.17;5.43;;;8.80;99.90;;;;;;4975074;28;20662;-78
2023/03/12 09:48:07;;;;;;;6.20;5.33;;;8.90;99.90;;;;;;4961418;28;20206;-85
2023/03/12 09:50:39;;;;;;;6.00;4.90;;;9.20;99.90;;;;;;4961725;28;20218;-84
2023/03/12 09:53:15;;;;;;;7.03;4.90;;;9.50;99.90;;;;;;4973854;28;20255;-85
2023/03/12 09:55:45;;;;;;;5.57;4.53;;;9.80;99.90;;;;;;4967376;28;20195;-84
2023/03/12 09:58:15;;;;;;;7.13;6.43;;;10.00;99.90;;;;;;4962242;28;20203;-84
2023/03/12 10:00:42;;;;;;;7.17;5.83;;;10.20;99.90;;;;;;4963291;28;20222;-85
2023/03/12 10:03:34;;;;;;;7.03;4.60;;;10.40;99.90;;;;;;4963145;28;20698;-84
2023/03/12 10:06:10;;;;;;;5.90;4.53;;;10.60;99.90;;;;;;4950540;28;20680;-84
2023/03/12 10:08:54;;;;;;;10.00;9.30;;;10.80;99.90;;;;;;4957957;28;20205;-85
2023/03/12 10:11:32;;;;;;;5.17;4.13;;;11.00;99.90;;;;;;4964073;28;20244;-85
2023/03/12 10:14:20;;;;;;;4.70;3.93;;;11.20;99.90;;;;;;4968235;28;20261;-85
2023/03/12 10:17:03;;;;;;;4.67;4.17;;;11.40;99.90;;;;;;4960772;28;20255;-86
2023/03/12 10:19:49;;;;;;;5.13;3.93;;;11.50;99.90;;;;;;4963171;28;20213;-85
2023/03/12 10:22:25;;;;;;;4.70;3.70;;;11.60;99.90;;;;;;4955813;28;20240;-86
2023/03/12 10:25:01;;;;;;;5.53;3.80;;;11.70;99.90;;;;;;4951112;29;20210;-84
2023/03/12 10:27:30;;;;;;;3.50;3.20;;;11.70;99.90;;;;;;4957703;28;20202;-84
2023/03/12 10:29:58;;;;;;;4.80;2.83;;;11.60;99.90;;;;;;4957125;28;20214;-85
2023/03/12 10:32:31;;;;;;;3.33;2.60;;;11.40;99.90;;;;;;4963800;28;20222;-84
2023/03/12 10:35:02;;;;;;;3.43;2.70;;;11.50;99.90;;;;;;4953519;28;20207;-86
2023/03/12 10:37:33;;;;;;;3.10;2.80;;;11.50;99.90;;;;;;4953908;28;20199;-85
2023/03/12 10:40:01;;;;;;;4.27;2.50;;;11.50;99.90;;;;;;4956480;28;20244;-84
2023/03/12 10:42:29;;;;;;;5.07;4.57;;;11.60;99.90;;;;;;4953565;28;20286;-83
2023/03/12 10:44:59;;;;;;;5.83;5.33;;;11.80;99.90;;;;;;4952264;28;20230;-84
2023/03/12 10:47:35;;;;;;;5.63;5.13;;;11.90;99.90;;;;;;4958792;28;20225;-84
2023/03/12 10:50:13;;;;;;;3.60;2.93;;;12.00;99.90;;;;;;4968487;28;20208;-83
2023/03/12 10:52:40;;;;;;;2.73;2.50;;;12.20;99.90;;;;;;4970675;28;20225;-83
2023/03/12 10:55:19;;;;;;;6.70;4.13;;;12.40;99.90;;;;;;4958015;28;20327;-85
2023/03/12 10:57:46;;;;;;;3.80;3.50;;;12.40;99.90;;;;;;4948861;28;20579;-85
2023/03/12 11:00:21;;;;;;;5.73;5.00;;;12.30;99.90;;;;;;4957095;28;20211;-85
2023/03/12 11:02:57;;;;;;;3.03;2.30;;;12.20;99.90;;;;;;4952755;28;20629;-83
2023/03/12 11:05:27;;;;;;;2.43;2.20;;;12.00;99.90;;;;;;4948554;28;20294;-84
2023/03/12 11:07:54;;;;;;;2.53;2.30;;;11.90;99.90;;;;;;4954836;28;20211;-83
2023/03/12 11:10:25;;;;;;;4.60;2.57;;;11.90;99.90;;;;;;4957348;28;20664;-86
2023/03/12 11:12:57;;;;;;;4.03;2.90;;;11.70;99.90;;;;;;4948143;28;20204;-80
2023/03/12 11:15:27;;;;;;;4.53;4.13;;;11.60;99.90;;;;;;4947385;28;20209;-81
2023/03/12 11:18:19;;;;;;;5.13;3.00;;;11.50;99.90;;;;;;4953924;28;20209;-80
2023/03/12 11:20:46;;;;;;;5.20;2.57;;;11.60;99.90;;;;;;4949479;28;20222;-80
2023/03/12 11:23:15;;;;;;;7.17;2.60;;;11.60;99.90;;;;;;4957086;28;20198;-80
2023/03/12 11:25:43;;;;;;;3.07;2.40;;;11.60;99.90;;;;;;4952409;28;20222;-80
2023/03/12 11:28:17;;;;;;;3.53;2.20;;;11.70;99.90;;;;;;4955669;28;20233;-80
2023/03/12 11:30:44;;;;;;;5.30;2.70;;;11.70;99.90;;;;;;4952279;28;20276;-81
2023/03/12 11:33:12;;;;;;;7.30;6.70;;;11.80;99.90;;;;;;4949336;28;20610;-80
2023/03/12 11:35:45;;;;;;;5.77;5.27;;;11.90;99.90;;;;;;4952363;28;20196;-81
2023/03/12 11:38:17;;;;;;;7.70;5.40;;;12.00;99.90;;;;;;4948804;28;20214;-80
2023/03/12 11:41:06;;;;;;;5.73;5.10;;;12.10;99.90;;;;;;4956344;28;20221;-80
2023/03/12 11:43:49;;;;;;;7.97;6.97;;;12.00;99.90;;;;;;4950037;28;20210;-82
2023/03/12 11:46:30;;;;;;;7.13;6.50;;;11.80;99.90;;;;;;4957999;28;20226;-81
2023/03/12 11:49:11;;;;;;;3.40;2.40;;;11.70;99.90;;;;;;4963448;28;20210;-87
2023/03/12 11:51:49;;;;;;;6.23;5.73;;;11.80;99.90;;;;;;4965161;28;20272;-86
2023/03/12 11:54:39;;;;;;;3.10;2.23;;;11.90;99.90;;;;;;4958951;28;20261;-86
2023/03/12 11:57:15;;;;;;;6.53;2.70;;;12.10;99.90;;;;;;4967524;28;20206;-84
2023/03/12 11:59:54;;;;;;;5.67;2.60;;;12.20;99.90;;;;;;4952475;28;20199;-85
2023/03/12 12:02:45;;;;;;;5.23;2.40;;;12.30;99.90;;;;;;4946639;28;20289;-86
2023/03/12 12:05:34;;;;;;;4.33;2.37;;;12.50;99.90;;;;;;4960613;28;20215;-87
2023/03/12 12:08:26;;;;;;;7.07;2.90;;;12.70;99.90;;;;;;4952087;28;20207;-87
2023/03/12 12:11:03;;;;;;;6.13;4.30;;;12.90;99.90;;;;;;4956270;28;20221;-88
2023/03/12 12:13:40;;;;;;;4.70;3.90;;;12.90;99.90;;;;;;4947617;28;20217;-87
2023/03/12 12:16:27;;;;;;;4.17;3.77;;;13.10;99.90;;;;;;4953577;28;20198;-87
2023/03/12 12:19:05;;;;;;;4.30;3.70;;;13.00;99.90;;;;;;4942826;28;20238;-81
2023/03/12 12:21:43;;;;;;;5.00;3.73;;;13.10;99.90;;;;;;4951679;28;20316;-79
2023/03/12 12:24:21;;;;;;;4.13;3.77;;;13.10;99.90;;;;;;4949678;28;20202;-79
2023/03/12 12:26:56;;;;;;;5.57;3.97;;;13.20;99.90;;;;;;4950255;28;20190;-79
2023/03/12 12:29:34;;;;;;;7.10;4.00;;;13.40;99.90;;;;;;4947329;28;20269;-79
2023/03/12 12:32:03;;;;;;;4.43;4.03;;;13.50;99.90;;;;;;4962861;28;20290;-79
2023/03/12 12:34:52;;;;;;;4.20;3.90;;;13.60;99.90;;;;;;4957730;28;20209;-79
2023/03/12 12:37:24;;;;;;;7.80;4.40;;;13.70;99.90;;;;;;4953214;28;20224;-79
2023/03/12 12:39:59;;;;;;;4.53;4.10;;;13.80;99.90;;;;;;4944062;28;20216;-79
2023/03/12 12:42:31;;;;;;;6.30;4.50;;;13.90;99.90;;;;;;4953641;28;20226;-79
2023/03/12 12:45:03;;;;;;;4.50;4.07;;;13.90;99.90;;;;;;4970035;28;20270;-79
2023/03/12 12:47:39;;;;;;;5.37;4.50;;;13.80;99.90;;;;;;4955583;28;20199;-79
2023/03/12 12:50:13;;;;;;;4.50;4.00;;;13.60;99.90;;;;;;4953020;28;20259;-79
2023/03/12 12:52:40;;;;;;;4.50;4.10;;;13.50;99.90;;;;;;4956207;28;20233;-79
2023/03/12 12:55:16;;;;;;;5.00;4.33;;;13.30;99.90;;;;;;4953674;28;20199;-79
2023/03/12 12:57:48;;;;;;;6.27;4.30;;;13.30;99.90;;;;;;4950645;28;20493;-79
2023/03/12 13:00:35;;;;;;;5.23;4.17;;;13.40;99.90;;;;;;4954941;28;20999;-79
2023/03/12 13:03:03;;;;;;;4.07;3.50;;;13.50;99.90;;;;;;4952557;28;20226;-79
2023/03/12 13:05:46;;;;;;;8.23;4.00;;;13.40;99.90;;;;;;4956562;28;20217;-79
2023/03/12 13:08:35;;;;;;;7.43;5.03;;;13.30;99.90;;;;;;4956947;28;20205;-80
2023/03/12 13:11:06;;;;;;;7.03;4.60;;;13.20;99.90;;;;;;4955312;28;20224;-79
2023/03/12 13:13:32;;;;;;;4.67;3.83;;;13.00;99.90;;;;;;4952535;28;20608;-79
2023/03/12 13:16:29;;;;;;;6.03;4.07;;;13.10;99.90;;;;;;4957531;28;20205;-79
2023/03/12 13:18:58;;;;;;;4.80;4.10;;;13.30;99.90;;;;;;4950084;28;20200;-79
2023/03/12 13:21:29;;;;;;;6.53;4.00;;;13.40;99.90;;;;;;4952298;28;20219;-79
2023/03/12 13:24:12;;;;;;;4.63;4.10;;;13.50;99.90;;;;;;4951420;28;20216;-80
2023/03/12 13:26:51;;;;;;;5.27;4.40;;;13.70;99.90;;;;;;4951630;28;20291;-78
2023/03/12 13:29:35;;;;;;;4.80;4.40;;;13.70;99.90;;;;;;4957341;28;20204;-78
2023/03/12 13:32:04;;;;;;;5.40;4.20;;;13.70;99.90;;;;;;4949850;28;20268;-79
2023/03/12 13:34:55;;;;;;;4.40;4.00;;;13.80;99.90;;;;;;4953777;28;20289;-79
2023/03/12 13:37:52;;;;;;;6.57;4.50;;;13.90;99.90;;;;;;4948915;28;20193;-79
2023/03/12 13:40:35;;;;;;;5.10;4.53;;;13.90;99.90;;;;;;4950940;28;20197;-78
2023/03/12 13:43:05;;;;;;;4.80;4.30;;;13.80;99.90;;;;;;4943588;28;20634;-80
2023/03/12 13:45:32;;;;;;;8.40;4.50;;;13.60;99.90;;;;;;4951910;28;20222;-80
2023/03/12 13:48:02;;;;;;;6.53;4.00;;;13.60;99.90;;;;;;4950345;28;20207;-79
2023/03/12 13:50:31;;;;;;;4.03;3.30;;;13.50;99.90;;;;;;4952651;28;20197;-81
2023/03/12 13:53:03;;;;;;;5.93;3.50;;;13.40;99.90;;;;;;4956399;28;20262;-80
2023/03/12 13:55:32;;;;;;;6.27;5.63;;;13.20;99.90;;;;;;4953603;28;20283;-82
2023/03/12 13:58:07;;;;;;;8.40;7.67;;;13.20;99.90;;;;;;4948957;28;20274;-85
2023/03/12 14:00:38;;;;;;;7.07;6.57;;;13.20;99.90;;;;;;4956856;28;20280;-86
2023/03/12 14:03:13;;;;;;;7.13;6.50;;;13.20;99.90;;;;;;4967580;28;20213;-83
2023/03/12 14:05:48;;;;;;;5.90;5.30;;;13.10;99.90;;;;;;4959766;28;20231;-83
2023/03/12 14:08:33;;;;;;;7.00;6.03;;;13.10;99.90;;;;;;4951517;28;20278;-84
2023/03/12 14:11:09;;;;;;;4.20;3.57;;;13.00;99.90;;;;;;4948489;28;20239;-84
2023/03/12 14:13:51;;;;;;;9.73;8.77;;;12.90;99.90;;;;;;4954270;28;20585;-83
2023/03/12 14:16:26;;;;;;;9.07;8.20;;;12.80;99.90;;;;;;4952356;28;20209;-86
2023/03/12 14:18:54;;;;;;;8.83;8.13;;;12.70;99.90;;;;;;4962378;28;20680;-86
2023/03/12 14:21:23;;;;;;;9.37;8.50;;;12.70;99.90;;;;;;4968123;28;20637;-87
2023/03/12 14:23:56;;;;;;;6.73;5.87;;;12.70;99.90;;;;;;4960048;28;20214;-84
2023/03/12 14:26:25;;;;;;;7.27;6.00;;;12.80;99.90;;;;;;4953721;28;20307;-86
2023/03/12 14:28:58;;;;;;;9.20;8.13;;;12.90;99.90;;;;;;4955902;28;20219;-85
2023/03/12 14:31:28;;;;;;;6.00;4.80;;;12.90;99.90;;;;;;4955982;28;20222;-86
2023/03/12 14:34:00;;;;;;;7.17;6.47;;;12.90;99.90;;;;;;4948620;28;20196;-83
2023/03/12 14:36:36;;;;;;;9.13;8.43;;;12.90;99.90;;;;;;4959423;28;20189;-85
2023/03/12 14:39:15;;;;;;;6.40;5.80;;;12.80;99.90;;;;;;4953415;28;20206;-85
2023/03/12 14:41:48;;;;;;;8.50;7.80;;;12.80;99.90;;;;;;4960520;28;20219;-86
2023/03/12 14:44:22;;;;;;;9.00;8.20;;;12.60;99.90;;;;;;4962596;28;20207;-86
2023/03/12 14:46:56;;;;;;;9.17;8.37;;;12.60;99.90;;;;;;4951883;28;20243;-85
2023/03/12 14:49:25;;;;;;;9.23;8.53;;;12.60;99.90;;;;;;4957453;28;20207;-84
2023/03/12 14:51:52;;;;;;;8.37;7.77;;;12.60;99.90;;;;;;4929899;28;20228;-84
2023/03/12 14:54:22;;;;;;;8.23;7.67;;;12.80;99.90;;;;;;4946377;28;20217;-85
2023/03/12 14:56:49;;;;;;;8.10;7.60;;;12.80;99.90;;;;;;4945890;28;20192;-85
2023/03/12 14:59:26;;;;;;;8.80;8.00;;;12.70;99.90;;;;;;4952048;28;20212;-84
2023/03/12 15:01:59;;;;;;;8.43;7.83;;;12.70;99.90;;;;;;4952212;28;20258;-84
2023/03/12 15:04:29;;;;;;;9.10;8.37;;;12.60;99.90;;;;;;4951947;28;20200;-84
2023/03/12 15:07:00;;;;;;;8.50;7.90;;;12.60;99.90;;;;;;4954574;28;20314;-85
2023/03/12 15:09:29;;;;;;;8.50;7.90;;;12.60;99.90;;;;;;4953643;28;20288;-84
2023/03/12 15:11:59;;;;;;;8.70;8.10;;;12.60;99.90;;;;;;4957450;28;20707;-85
2023/03/12 15:14:28;;;;;;;8.93;8.20;;;12.60;99.90;;;;;;4956417;28;20215;-84
2023/03/12 15:16:55;;;;;;;8.60;7.90;;;12.70;99.90;;;;;;4950332;28;20709;-84
2023/03/12 15:19:31;;;;;;;8.27;7.77;;;12.70;99.90;;;;;;4946339;28;20207;-85
2023/03/12 15:21:58;;;;;;;9.00;8.30;;;12.70;99.90;;;;;;4946781;28;20261;-83
2023/03/12 15:24:26;;;;;;;8.23;7.63;;;12.60;99.90;;;;;;4950226;28;20202;-85
2023/03/12 15:26:53;;;;;;;9.27;8.40;;;12.80;99.90;;;;;;4948970;28;20216;-86
2023/03/12 15:29:26;;;;;;;8.40;7.77;;;12.80;99.90;;;;;;4953250;28;20206;-85
2023/03/12 15:31:54;;;;;;;8.20;7.60;;;12.80;99.90;;;;;;4946284;28;20223;-84
2023/03/12 15:34:31;;;;;;;8.10;7.60;;;12.90;99.90;;;;;;4944626;28;20203;-85
2023/03/12 15:36:59;;;;;;;8.90;8.20;;;13.00;99.90;;;;;;4945967;28;20301;-84
2023/03/12 15:39:28;;;;;;;9.10;8.40;;;12.90;99.90;;;;;;4948918;28;20203;-83
2023/03/12 15:41:59;;;;;;;8.20;7.60;;;13.00;99.90;;;;;;4950484;28;20219;-84
2023/03/12 15:44:29;;;;;;;8.73;8.13;;;13.00;99.90;;;;;;4943931;28;20208;-85
2023/03/12 15:47:02;;;;;;;8.97;8.07;;;12.90;99.90;;;;;;4950450;28;20222;-85
2023/03/12 15:49:34;;;;;;;8.50;7.90;;;12.80;99.90;;;;;;4952170;28;20214;-83
2023/03/12 15:52:23;;;;;;;8.80;8.20;;;12.70;99.90;;;;;;4945432;28;20234;-85
2023/03/12 15:55:00;;;;;;;8.57;7.77;;;12.60;99.90;;;;;;4955841;28;20584;-85
2023/03/12 15:57:28;;;;;;;8.17;7.37;;;12.70;99.90;;;;;;4954885;28;20193;-83
2023/03/12 16:00:17;;;;;;;8.40;7.70;;;12.60;99.90;;;;;;4950201;28;20206;-85
2023/03/12 16:02:53;;;;;;;8.20;7.60;;;12.60;99.90;;;;;;4949705;28;20310;-84